Terminal Aerodrome Forecast
Issued by NWS Cleveland, OH

Home | Current Version | Previous Version | Graphics & Text | Print | Product List | Glossary On
Versions: 1 2 3 4 5 6 7 8 9 10 11 12 13 14 15 16 17
947
FTUS41 KCLE 220538
TAFYNG
TAF
KYNG 220538Z 2206/2306 10004KT P6SM SCT080 BKN200
     FM221500 20008KT P6SM VCSH BKN060 OVC100
     FM221800 22012KT P6SM SCT050 BKN120=

USA.gov is the U.S. government's official web portal to all federal, state and local government web resources and services.